createdAt,value
2023-01-13T00:01:27.454Z,4.78
2023-01-13T00:03:58.629Z,4.50
2023-01-13T00:06:26.494Z,4.93
2023-01-13T00:08:54.991Z,5.35
2023-01-13T00:11:22.666Z,4.90
2023-01-13T00:13:50.426Z,4.78
2023-01-13T00:16:20.018Z,5.13
2023-01-13T00:18:49.003Z,4.97
2023-01-13T00:21:19.644Z,4.65
2023-01-13T00:23:48.220Z,4.28
2023-01-13T00:26:20.966Z,5.32
2023-01-13T00:28:49.120Z,5.40
2023-01-13T00:31:21.210Z,6.35
2023-01-13T00:33:51.537Z,5.25
2023-01-13T00:36:20.982Z,4.43
2023-01-13T00:38:48.973Z,4.80
2023-01-13T00:41:21.580Z,5.13
2023-01-13T00:43:50.529Z,4.97
2023-01-13T00:46:20.707Z,5.33
2023-01-13T00:48:49.984Z,5.97
2023-01-13T00:51:21.135Z,5.28
2023-01-13T00:53:50.653Z,5.68
2023-01-13T00:56:38.638Z,5.60
2023-01-13T00:59:10.080Z,5.00
2023-01-13T01:01:38.673Z,6.35
2023-01-13T01:04:07.353Z,5.10
2023-01-13T01:06:35.468Z,6.05
2023-01-13T01:09:04.046Z,5.60
2023-01-13T01:11:33.308Z,5.50
2023-01-13T01:14:03.073Z,5.78
2023-01-13T01:16:34.379Z,5.07
2023-01-13T01:19:02.545Z,5.85
2023-01-13T01:21:30.372Z,5.10
2023-01-13T01:24:01.002Z,5.28
2023-01-13T01:26:32.875Z,5.20
2023-01-13T01:29:02.385Z,5.00
2023-01-13T01:31:33.461Z,5.07
2023-01-13T01:34:02.062Z,5.53
2023-01-13T01:36:30.388Z,6.45
2023-01-13T01:38:59.184Z,5.65
2023-01-13T01:41:31.727Z,5.93
2023-01-13T01:44:19.066Z,5.40
2023-01-13T01:46:47.098Z,5.68
2023-01-13T01:49:20.519Z,5.63
2023-01-13T01:52:06.766Z,5.60
2023-01-13T01:54:46.399Z,5.45
2023-01-13T01:57:20.044Z,5.82
2023-01-13T01:59:47.941Z,5.15
2023-01-13T02:02:16.085Z,6.05
2023-01-13T02:04:51.171Z,6.25
2023-01-13T02:07:23.293Z,5.97
2023-01-13T02:09:53.077Z,5.75
2023-01-13T02:12:30.304Z,5.45
2023-01-13T02:15:02.582Z,5.35
2023-01-13T02:17:49.146Z,5.05
2023-01-13T02:20:53.823Z,5.50
2023-01-13T02:23:49.247Z,5.63
2023-01-13T02:26:29.816Z,5.13
2023-01-13T02:29:34.098Z,5.80
2023-01-13T02:32:19.147Z,4.78
2023-01-13T02:35:00.851Z,5.00
2023-01-13T02:37:31.835Z,6.88
2023-01-13T02:40:03.169Z,5.35
2023-01-13T02:42:55.374Z,5.13
2023-01-13T02:45:34.323Z,4.65
2023-01-13T02:48:05.862Z,5.05
2023-01-13T02:50:42.924Z,5.38
2023-01-13T02:53:49.472Z,4.78
2023-01-13T02:56:17.697Z,4.80
2023-01-13T02:58:47.315Z,5.35
2023-01-13T03:01:15.103Z,4.75
2023-01-13T03:03:44.009Z,5.18
2023-01-13T03:06:46.801Z,4.78
2023-01-13T03:09:38.195Z,5.50
2023-01-13T03:12:51.565Z,4.88
2023-01-13T03:15:40.437Z,5.20
2023-01-13T03:18:23.742Z,5.10
2023-01-13T03:21:05.067Z,4.90
2023-01-13T03:23:37.514Z,5.30
2023-01-13T03:26:24.962Z,5.53
2023-01-13T03:28:59.752Z,6.55
2023-01-13T03:31:32.369Z,5.00
2023-01-13T03:34:09.849Z,5.55
2023-01-13T03:36:41.059Z,5.28
2023-01-13T03:39:15.199Z,5.10
2023-01-13T03:41:53.157Z,4.78
2023-01-13T03:44:32.850Z,4.68
2023-01-13T03:47:18.593Z,4.68
2023-01-13T03:49:53.408Z,5.10
2023-01-13T03:52:33.310Z,4.57
2023-01-13T03:55:09.574Z,4.38
2023-01-13T03:57:43.917Z,5.05
2023-01-13T04:00:14.613Z,5.03
2023-01-13T04:02:57.261Z,5.43
2023-01-13T04:05:26.146Z,5.55
2023-01-13T04:08:01.827Z,4.72
2023-01-13T04:10:45.396Z,4.53
2023-01-13T04:13:19.409Z,4.90
2023-01-13T04:15:49.940Z,5.07
2023-01-13T04:18:20.530Z,5.30
2023-01-13T04:20:51.261Z,5.50
2023-01-13T04:23:20.765Z,5.25
2023-01-13T04:25:49.419Z,5.07
2023-01-13T04:28:18.526Z,5.90
2023-01-13T04:30:46.627Z,5.60
2023-01-13T04:33:17.233Z,5.45
2023-01-13T04:38:16.939Z,4.93
2023-01-13T04:40:45.327Z,5.35
2023-01-13T04:43:13.097Z,5.15
2023-01-13T04:45:41.665Z,5.35
2023-01-13T04:48:09.389Z,5.13
2023-01-13T04:50:37.489Z,5.65
2023-01-13T04:53:05.836Z,4.47
2023-01-13T04:55:33.530Z,5.38
2023-01-13T04:58:07.993Z,5.47
2023-01-13T05:00:36.507Z,5.70
2023-01-13T05:03:05.228Z,5.27
2023-01-13T05:05:32.951Z,5.43
2023-01-13T05:08:03.267Z,5.53
2023-01-13T05:10:31.212Z,5.30
2023-01-13T05:13:17.708Z,5.35
2023-01-13T05:16:06.474Z,5.07
2023-01-13T05:18:34.530Z,5.50
2023-01-13T05:21:02.114Z,5.22
2023-01-13T05:23:48.601Z,5.22
2023-01-13T05:26:16.249Z,5.30
2023-01-13T05:28:43.930Z,5.55
2023-01-13T05:31:12.172Z,5.22
2023-01-13T05:33:40.147Z,4.78
2023-01-13T05:36:08.274Z,4.43
2023-01-13T05:38:36.434Z,4.95
2023-01-13T05:41:22.518Z,5.28
2023-01-13T05:43:50.159Z,4.93
2023-01-13T05:46:17.866Z,5.45
2023-01-13T05:48:45.678Z,5.35
2023-01-13T05:51:13.506Z,5.38
2023-01-13T05:56:11.620Z,4.63
2023-01-13T05:58:39.497Z,5.88
2023-01-13T06:01:10.609Z,5.30
2023-01-13T06:03:39.412Z,5.20
2023-01-13T06:06:09.124Z,5.72
2023-01-13T06:08:40.592Z,5.15
2023-01-13T06:11:08.400Z,5.88
2023-01-13T06:13:36.684Z,5.00
2023-01-13T06:16:04.562Z,5.60
2023-01-13T06:18:32.486Z,5.75
2023-01-13T06:21:00.217Z,5.38
2023-01-13T06:23:28.395Z,5.18
2023-01-13T06:26:09.771Z,5.22
2023-01-13T06:28:37.685Z,5.38
2023-01-13T06:31:07.772Z,5.18
2023-01-13T06:34:05.195Z,5.47
2023-01-13T06:36:40.282Z,5.22
2023-01-13T06:39:10.875Z,5.70
2023-01-13T06:41:58.992Z,5.35
2023-01-13T06:44:26.872Z,5.35
2023-01-13T06:46:54.453Z,4.97
2023-01-13T06:49:22.902Z,5.45
2023-01-13T06:51:50.635Z,5.65
2023-01-13T06:54:18.175Z,4.95
2023-01-13T06:56:45.982Z,5.45
2023-01-13T06:59:14.076Z,5.78
2023-01-13T07:01:41.995Z,5.03
2023-01-13T07:04:09.810Z,5.93
2023-01-13T07:06:37.375Z,5.47
2023-01-13T07:09:06.842Z,6.00
2023-01-13T07:11:35.048Z,5.38
2023-01-13T07:14:21.285Z,5.25
2023-01-13T07:16:48.951Z,5.68
2023-01-13T07:19:23.296Z,6.43
2023-01-13T07:21:52.808Z,5.65
2023-01-13T07:26:51.055Z,5.20
2023-01-13T07:31:48.983Z,5.65
2023-01-13T07:34:17.489Z,5.70
2023-01-13T07:36:45.238Z,5.57
2023-01-13T07:39:12.748Z,5.18
2023-01-13T07:41:58.835Z,5.35
2023-01-13T07:44:27.856Z,5.45
2023-01-13T07:46:55.447Z,5.30
2023-01-13T07:49:24.489Z,5.22
2023-01-13T07:51:52.090Z,5.80
2023-01-13T07:54:25.452Z,5.25
2023-01-13T07:56:59.348Z,5.05
2023-01-13T07:59:26.942Z,5.80
2023-01-13T08:01:54.843Z,6.32
2023-01-13T12:02:11.206Z,5.70
2023-01-13T12:04:51.191Z,5.93
2023-01-13T12:07:35.493Z,6.50
2023-01-13T12:10:33.761Z,6.45
2023-01-13T12:13:07.375Z,6.15
2023-01-13T12:15:54.584Z,5.68
2023-01-13T12:18:24.850Z,5.35
2023-01-13T12:21:24.367Z,6.00
2023-01-13T12:24:10.927Z,6.10
2023-01-13T12:26:49.429Z,6.32
2023-01-13T12:29:19.641Z,6.55
2023-01-13T12:31:49.393Z,5.68
2023-01-13T12:34:29.014Z,6.75
2023-01-13T12:41:02.758Z,6.50
2023-01-13T12:43:51.105Z,6.63
2023-01-13T12:46:18.647Z,6.35
2023-01-13T12:48:59.261Z,6.22
2023-01-13T12:51:33.242Z,8.20
2023-01-13T12:54:02.423Z,6.95
2023-01-13T12:56:37.047Z,7.32
2023-01-13T12:59:19.978Z,7.55
2023-01-13T13:02:08.616Z,6.47
2023-01-13T13:04:52.064Z,7.05
2023-01-13T13:07:41.500Z,6.80
2023-01-13T13:10:36.773Z,7.10
2023-01-13T13:13:20.863Z,6.78
2023-01-13T13:15:50.868Z,7.47
2023-01-13T13:18:18.956Z,7.32
2023-01-13T13:20:56.201Z,7.35
2023-01-13T13:23:26.439Z,6.57
2023-01-13T13:26:14.812Z,6.75
2023-01-13T13:29:13.488Z,6.80
2023-01-13T13:31:59.202Z,8.75
2023-01-13T13:34:52.923Z,6.40
2023-01-13T13:37:55.737Z,7.03
2023-01-13T13:40:43.787Z,6.93
2023-01-13T13:43:32.424Z,6.95
2023-01-13T13:46:18.805Z,7.60
2023-01-13T13:48:54.606Z,6.90
2023-01-13T13:51:41.494Z,8.10
2023-01-13T13:54:15.396Z,6.63
2023-01-13T13:56:45.355Z,7.10
2023-01-13T14:01:45.314Z,7.53
2023-01-13T14:04:21.063Z,7.35
2023-01-13T14:07:06.248Z,6.63
2023-01-13T14:09:44.622Z,7.30
2023-01-13T14:12:27.149Z,7.43
2023-01-13T14:14:57.555Z,7.22
2023-01-13T14:17:30.104Z,6.70
2023-01-13T14:20:07.956Z,7.65
2023-01-13T14:22:35.858Z,6.95
2023-01-13T14:25:30.348Z,6.75
2023-01-13T14:28:03.854Z,7.18
2023-01-13T14:30:33.115Z,6.82
2023-01-13T14:33:01.301Z,7.22
2023-01-13T14:35:30.073Z,7.30
2023-01-13T14:38:04.894Z,7.40
2023-01-13T14:40:33.264Z,7.10
2023-01-13T14:43:02.435Z,7.32
2023-01-13T14:45:33.215Z,8.18
2023-01-13T14:48:02.703Z,7.35
2023-01-13T14:53:02.007Z,7.22
2023-01-13T14:55:40.866Z,8.13
2023-01-13T14:58:28.646Z,7.13
2023-01-13T15:01:30.416Z,7.25
2023-01-13T15:04:26.077Z,7.78
2023-01-13T15:06:56.553Z,7.90
2023-01-13T15:09:40.365Z,7.20
2023-01-13T15:12:31.273Z,6.75
2023-01-13T15:14:59.326Z,7.25
2023-01-13T15:17:26.821Z,8.07
2023-01-13T15:19:54.490Z,8.27
2023-01-13T15:22:21.964Z,7.97
2023-01-13T15:24:50.308Z,7.55
2023-01-13T15:27:22.229Z,9.40
2023-01-13T15:29:49.778Z,8.23
2023-01-13T15:32:21.825Z,8.18
2023-01-13T15:34:49.418Z,8.18
2023-01-13T15:37:20.035Z,8.30
2023-01-13T15:39:47.577Z,8.23
2023-01-13T15:42:33.671Z,8.18
2023-01-13T15:45:19.998Z,8.10
2023-01-13T15:47:48.385Z,8.50
2023-01-13T15:50:18.598Z,8.25
2023-01-13T15:52:46.259Z,9.18
2023-01-13T15:55:13.939Z,8.90
2023-01-13T15:57:48.509Z,8.90
2023-01-13T16:00:21.750Z,9.13
2023-01-13T16:02:50.141Z,9.23
2023-01-13T16:05:17.942Z,9.30
2023-01-13T16:07:45.655Z,8.63
2023-01-13T16:10:20.976Z,8.98
2023-01-13T16:12:48.633Z,9.98
2023-01-13T16:15:17.479Z,9.23
2023-01-13T16:17:54.203Z,17.95
2023-01-13T16:20:22.436Z,11.13
2023-01-13T16:22:50.543Z,10.73
2023-01-13T16:25:24.399Z,9.40
2023-01-13T16:27:52.806Z,9.52
2023-01-13T16:30:24.951Z,8.95
2023-01-13T16:32:55.202Z,10.13
2023-01-13T16:35:26.299Z,9.03
2023-01-13T16:37:55.130Z,9.68
2023-01-13T16:40:33.467Z,9.55
2023-01-13T16:43:03.504Z,10.20
2023-01-13T16:45:31.833Z,8.82
2023-01-13T16:48:03.110Z,9.77
2023-01-13T16:50:42.046Z,10.55
2023-01-13T16:53:10.862Z,9.95
2023-01-13T16:55:40.056Z,9.50
2023-01-13T16:58:16.345Z,10.07
2023-01-13T20:03:46.067Z,17.00
2023-01-13T20:06:14.318Z,16.20
2023-01-13T20:08:46.048Z,16.30
2023-01-13T20:11:22.858Z,15.63
2023-01-13T20:13:52.261Z,16.20
2023-01-13T20:16:19.777Z,15.35
2023-01-13T20:18:51.604Z,15.25
2023-01-13T20:21:19.478Z,15.45
2023-01-13T20:23:53.628Z,15.70
2023-01-13T20:26:21.776Z,16.25
2023-01-13T20:28:49.369Z,16.52
2023-01-13T20:31:17.286Z,17.08
2023-01-13T20:33:49.331Z,16.52
2023-01-13T20:40:21.547Z,15.93
2023-01-13T20:42:49.035Z,16.30
2023-01-13T20:45:20.413Z,17.70
2023-01-13T20:47:48.214Z,16.35
2023-01-13T20:50:16.751Z,17.13
2023-01-13T20:52:46.372Z,17.58
2023-01-13T20:55:14.727Z,16.80
2023-01-13T20:57:42.319Z,15.55
2023-01-13T21:00:11.474Z,16.80
2023-01-13T21:02:40.891Z,17.25
2023-01-13T21:05:09.712Z,16.58
2023-01-13T21:10:06.009Z,15.30
2023-01-13T21:12:52.369Z,16.98
2023-01-13T21:15:22.247Z,15.88
2023-01-13T21:20:39.180Z,16.30
2023-01-13T21:25:37.246Z,15.15
2023-01-13T21:28:10.290Z,15.88
2023-01-13T21:30:39.250Z,14.85
2023-01-13T21:33:06.933Z,16.33
2023-01-13T21:35:38.403Z,23.00
2023-01-13T21:38:06.315Z,15.88
2023-01-13T21:40:33.896Z,14.65
2023-01-13T21:43:19.468Z,15.32
2023-01-13T21:46:07.067Z,15.95
2023-01-13T21:48:34.691Z,15.52
2023-01-13T21:51:02.368Z,15.75
2023-01-13T21:53:29.911Z,14.48
2023-01-13T21:55:57.716Z,15.18
2023-01-13T21:58:25.215Z,15.80
2023-01-13T22:00:54.156Z,14.95
2023-01-13T22:03:21.811Z,15.52
2023-01-13T22:05:54.945Z,15.20
2023-01-13T22:08:22.480Z,14.60
2023-01-13T22:11:00.175Z,15.57
2023-01-13T22:13:48.108Z,17.35
2023-01-13T22:16:16.130Z,17.83
2023-01-13T22:18:43.950Z,17.60
2023-01-13T22:21:11.900Z,16.27
2023-01-13T22:23:39.353Z,16.58
2023-01-13T22:26:08.667Z,17.00
2023-01-13T22:28:45.565Z,15.20
2023-01-13T22:31:19.247Z,15.82
2023-01-13T22:33:48.120Z,15.88
2023-01-13T22:36:16.240Z,15.48
2023-01-13T22:38:44.488Z,15.65
2023-01-13T22:41:12.566Z,15.57
2023-01-13T22:43:40.156Z,14.15
2023-01-13T22:46:12.475Z,14.90
2023-01-13T22:48:41.617Z,15.77
2023-01-13T22:51:14.713Z,15.15
2023-01-13T22:53:42.792Z,16.42
2023-01-13T22:58:44.832Z,14.60
2023-01-13T23:01:17.311Z,14.20
2023-01-13T23:03:47.709Z,15.95
2023-01-13T23:06:17.169Z,15.02
2023-01-13T23:08:46.582Z,14.90
2023-01-13T23:11:16.867Z,14.52
2023-01-13T23:13:45.674Z,13.48
2023-01-13T23:16:19.690Z,14.05
2023-01-13T23:19:12.897Z,29.67
2023-01-13T23:21:40.709Z,21.48
2023-01-13T23:24:09.580Z,13.77
2023-01-13T23:26:37.827Z,14.30
2023-01-13T23:29:08.216Z,15.38
2023-01-13T23:31:37.970Z,14.77
2023-01-13T23:34:05.591Z,15.00
2023-01-13T23:36:33.438Z,15.00
2023-01-13T23:39:00.986Z,14.95
2023-01-13T23:41:28.942Z,14.27
2023-01-13T23:43:59.576Z,14.75
2023-01-13T23:46:32.744Z,15.48
2023-01-13T23:49:02.627Z,15.30
2023-01-13T23:51:30.469Z,14.55
2023-01-13T23:54:02.606Z,15.00
2023-01-13T23:56:31.523Z,13.52
2023-01-13T23:58:59.158Z,14.37
